createdAt,value
2023-04-04T00:00:58.099Z,7.63
2023-04-04T00:03:25.183Z,8.77
2023-04-04T00:05:52.296Z,4.30
2023-04-04T00:08:19.245Z,6.70
2023-04-04T00:11:13.883Z,5.77
2023-04-04T00:13:44.187Z,6.33
2023-04-04T00:16:21.691Z,4.83
2023-04-04T00:18:51.627Z,6.27
2023-04-04T00:21:18.669Z,5.30
2023-04-04T00:23:45.662Z,4.33
2023-04-04T00:26:12.637Z,6.37
2023-04-04T00:28:42.748Z,10.37
2023-04-04T00:33:53.602Z,6.23
2023-04-04T00:36:20.566Z,7.77
2023-04-04T00:38:58.197Z,5.47
2023-04-04T00:41:28.278Z,5.80
2023-04-04T00:44:05.182Z,4.73
2023-04-04T00:46:33.105Z,7.90
2023-04-04T00:49:03.036Z,6.57
2023-04-04T00:51:40.976Z,10.00
2023-04-04T00:54:07.979Z,7.30
2023-04-04T00:56:39.685Z,7.57
2023-04-04T00:59:07.784Z,5.90
2023-04-04T01:01:36.446Z,6.63
2023-04-04T01:04:05.765Z,5.37
2023-04-04T01:06:33.594Z,5.70
2023-04-04T01:09:01.894Z,7.43
2023-04-04T01:12:14.263Z,5.93
2023-04-04T01:14:41.532Z,7.37
2023-04-04T01:17:18.128Z,5.57
2023-04-04T01:20:26.342Z,6.17
2023-04-04T01:22:55.346Z,5.00
2023-04-04T01:25:35.977Z,5.80
2023-04-04T01:28:03.149Z,6.63
2023-04-04T01:30:34.752Z,7.27
2023-04-04T01:33:18.118Z,7.83
2023-04-04T01:36:05.691Z,5.77
2023-04-04T01:39:03.951Z,5.57
2023-04-04T01:41:39.402Z,9.13
2023-04-04T01:44:06.664Z,5.30
2023-04-04T01:46:33.898Z,6.53
2023-04-04T01:49:09.694Z,6.67
2023-04-04T01:51:39.153Z,9.33
2023-04-04T01:54:06.181Z,3.90
2023-04-04T01:56:33.636Z,6.93
2023-04-04T01:59:01.536Z,5.17
2023-04-04T02:01:28.605Z,6.30
2023-04-04T02:04:04.820Z,6.70
2023-04-04T02:06:48.256Z,5.13
2023-04-04T02:09:27.311Z,5.97
2023-04-04T02:11:54.703Z,5.73
2023-04-04T02:14:22.020Z,5.57
2023-04-04T02:16:48.964Z,5.40
2023-04-04T02:19:21.581Z,5.57
2023-04-04T02:21:54.478Z,8.73
2023-04-04T02:24:28.566Z,6.73
2023-04-04T02:26:55.553Z,9.00
2023-04-04T02:29:23.422Z,7.23
2023-04-04T02:31:50.519Z,5.20
2023-04-04T02:34:17.547Z,5.60
2023-04-04T02:36:44.842Z,7.53
2023-04-04T02:39:40.767Z,10.30
2023-04-04T02:42:07.702Z,7.60
2023-04-04T02:44:44.660Z,11.17
2023-04-04T02:47:12.344Z,12.43
2023-04-04T02:49:39.425Z,13.20
2023-04-04T02:52:08.263Z,11.07
2023-04-04T02:54:37.679Z,8.87
2023-04-04T02:57:08.216Z,8.97
2023-04-04T02:59:46.494Z,10.47
2023-04-04T03:02:37.272Z,6.47
2023-04-04T03:05:04.966Z,7.93
2023-04-04T03:07:36.233Z,7.47
2023-04-04T03:10:06.802Z,9.63
2023-04-04T03:12:33.748Z,9.10
2023-04-04T03:15:00.645Z,9.40
2023-04-04T03:17:29.279Z,6.47
2023-04-04T03:19:56.200Z,5.83
2023-04-04T03:22:23.252Z,8.87
2023-04-04T03:24:52.076Z,7.50
2023-04-04T03:27:19.051Z,6.00
2023-04-04T03:29:46.079Z,5.83
2023-04-04T03:32:13.160Z,7.30
2023-04-04T03:34:40.239Z,8.20
2023-04-04T03:37:10.251Z,5.17
2023-04-04T03:39:37.237Z,6.60
2023-04-04T03:42:04.754Z,4.97
2023-04-04T03:44:31.704Z,9.03
2023-04-04T03:47:01.694Z,3.97
2023-04-04T03:49:28.943Z,5.27
2023-04-04T03:52:00.033Z,8.73
2023-04-04T03:54:29.473Z,7.83
2023-04-04T03:57:03.823Z,8.73
2023-04-04T03:59:42.247Z,7.77
2023-04-04T04:02:12.056Z,7.23
2023-04-04T04:04:47.782Z,10.77
2023-04-04T04:07:46.877Z,8.37
2023-04-04T04:10:22.107Z,8.37
2023-04-04T04:12:52.301Z,12.17
2023-04-04T04:15:19.493Z,7.57
2023-04-04T04:17:49.586Z,7.53
2023-04-04T04:20:28.189Z,7.73
2023-04-04T04:22:55.349Z,6.20
2023-04-04T04:25:22.739Z,9.93
2023-04-04T04:27:49.788Z,8.87
2023-04-04T04:30:16.971Z,8.13
2023-04-04T04:32:43.940Z,8.17
2023-04-04T04:35:11.085Z,8.33
2023-04-04T04:37:38.434Z,8.93
2023-04-04T04:40:06.558Z,10.37
2023-04-04T04:42:33.557Z,10.17
2023-04-04T04:45:00.617Z,9.00
2023-04-04T04:47:27.719Z,7.67
2023-04-04T04:49:54.745Z,9.03
2023-04-04T04:52:21.757Z,6.77
2023-04-04T04:54:51.823Z,7.10
2023-04-04T04:57:18.897Z,8.57
2023-04-04T04:59:46.019Z,9.43
2023-04-04T05:02:13.020Z,7.97
2023-04-04T05:04:41.267Z,9.83
2023-04-04T05:07:30.647Z,12.27
2023-04-04T05:09:57.691Z,9.73
2023-04-04T05:12:24.624Z,10.33
2023-04-04T05:14:51.558Z,9.00
2023-04-04T05:17:22.978Z,13.50
2023-04-04T05:19:50.147Z,15.03
2023-04-04T05:22:17.077Z,11.43
2023-04-04T05:24:43.996Z,12.10
2023-04-04T05:27:11.238Z,10.33
2023-04-04T05:29:38.188Z,15.73
2023-04-04T05:32:05.473Z,13.60
2023-04-04T05:34:35.514Z,13.77
2023-04-04T05:37:02.447Z,17.77
2023-04-04T05:39:29.512Z,20.63
2023-04-04T05:41:56.431Z,17.53
2023-04-04T05:44:33.271Z,11.63
2023-04-04T05:47:00.421Z,12.83
2023-04-04T05:49:28.464Z,14.50
2023-04-04T05:51:58.286Z,18.73
2023-04-04T05:54:25.265Z,17.87
2023-04-04T05:56:52.326Z,14.83
2023-04-04T05:59:19.261Z,15.23
2023-04-04T06:01:46.379Z,13.07
2023-04-04T06:04:15.566Z,12.00
2023-04-04T06:06:42.666Z,13.97
2023-04-04T06:09:09.607Z,14.07
2023-04-04T06:11:46.209Z,11.70
2023-04-04T06:14:14.725Z,11.80
2023-04-04T06:16:42.273Z,15.90
2023-04-04T06:19:09.361Z,9.43
2023-04-04T06:21:36.668Z,11.40
2023-04-04T06:24:03.776Z,10.60
2023-04-04T06:26:30.914Z,10.40
2023-04-04T06:28:57.836Z,12.97
2023-04-04T06:31:24.890Z,10.67
2023-04-04T06:33:51.882Z,10.07
2023-04-04T06:36:18.804Z,8.80
2023-04-04T06:38:45.782Z,15.50
2023-04-04T06:41:12.836Z,9.63
2023-04-04T06:43:39.879Z,8.17
2023-04-04T06:46:07.128Z,11.53
2023-04-04T06:48:34.185Z,12.60
2023-04-04T06:51:01.382Z,9.53
2023-04-04T06:53:28.460Z,13.57
2023-04-04T06:55:55.582Z,10.50
2023-04-04T06:58:22.540Z,10.70
2023-04-04T07:00:49.653Z,8.90
2023-04-04T07:03:33.030Z,11.27
2023-04-04T07:06:04.405Z,10.10
2023-04-04T07:08:36.957Z,9.20
2023-04-04T07:11:06.304Z,7.50
2023-04-04T07:13:39.869Z,11.40
2023-04-04T07:16:07.187Z,9.30
2023-04-04T07:18:34.201Z,11.43
2023-04-04T07:21:01.157Z,8.50
2023-04-04T07:23:28.243Z,9.40
2023-04-04T07:25:55.263Z,6.17
2023-04-04T07:28:22.761Z,9.10
2023-04-04T07:30:49.727Z,11.20
2023-04-04T07:33:16.757Z,9.60
2023-04-04T07:35:43.734Z,14.03
2023-04-04T07:38:26.737Z,9.33
2023-04-04T07:40:56.988Z,10.20
2023-04-04T07:43:24.076Z,11.57
2023-04-04T07:46:02.158Z,7.17
2023-04-04T07:48:29.234Z,10.47
2023-04-04T07:50:56.483Z,8.60
2023-04-04T07:53:23.552Z,9.53
2023-04-04T07:55:50.640Z,9.30
2023-04-04T07:58:17.695Z,6.37
2023-04-04T08:00:44.668Z,10.00
2023-04-04T08:03:12.405Z,13.50
2023-04-04T08:05:40.382Z,7.30
2023-04-04T08:08:07.453Z,9.30
2023-04-04T08:10:34.408Z,9.60
2023-04-04T08:13:01.481Z,5.07
2023-04-04T08:15:28.870Z,8.53
2023-04-04T08:17:56.855Z,6.63
2023-04-04T08:20:24.069Z,5.90
2023-04-04T08:22:51.063Z,7.60
2023-04-04T08:25:18.554Z,7.20
2023-04-04T08:27:45.857Z,5.87
2023-04-04T08:30:17.118Z,10.30
2023-04-04T08:32:46.019Z,8.47
2023-04-04T08:35:13.329Z,6.73
2023-04-04T08:37:47.050Z,8.00
2023-04-04T08:40:14.847Z,5.70
2023-04-04T08:42:46.190Z,4.80
2023-04-04T08:45:17.920Z,5.17
2023-04-04T08:47:46.627Z,4.60
2023-04-04T08:50:13.753Z,7.63
2023-04-04T08:52:41.779Z,5.30
2023-04-04T08:55:10.057Z,8.50
2023-04-04T08:57:37.905Z,4.80
2023-04-04T09:00:07.294Z,6.40
2023-04-04T09:02:53.457Z,6.33
2023-04-04T09:05:25.652Z,6.60
2023-04-04T09:07:56.973Z,6.83
2023-04-04T09:10:27.958Z,5.13
2023-04-04T09:13:05.202Z,4.30
2023-04-04T09:15:47.849Z,7.77
2023-04-04T09:18:15.618Z,7.07
2023-04-04T09:20:47.134Z,5.13
2023-04-04T09:23:21.572Z,6.37
2023-04-04T09:26:03.941Z,7.77
2023-04-04T09:28:33.425Z,5.00
2023-04-04T09:31:04.729Z,3.70
2023-04-04T09:33:35.814Z,5.70
2023-04-04T09:36:10.111Z,6.23
2023-04-04T09:38:45.705Z,6.80
2023-04-04T09:41:16.470Z,5.60
2023-04-04T09:43:45.778Z,5.40
2023-04-04T09:46:12.870Z,6.53
2023-04-04T09:48:40.348Z,4.27
2023-04-04T09:51:12.361Z,5.07
2023-04-04T09:53:42.126Z,6.53
2023-04-04T09:56:09.520Z,4.77
2023-04-04T09:58:44.297Z,6.67
2023-04-04T10:01:18.458Z,6.43
2023-04-04T10:03:54.193Z,3.77
2023-04-04T10:06:22.553Z,5.93
2023-04-04T10:08:50.405Z,5.60
2023-04-04T10:11:36.000Z,7.23
2023-04-04T10:14:06.853Z,6.77
2023-04-04T10:16:38.204Z,9.13
2023-04-04T10:19:08.898Z,7.37
2023-04-04T10:21:36.703Z,6.73
2023-04-04T10:24:09.401Z,8.27
2023-04-04T10:26:37.086Z,9.47
2023-04-04T10:29:06.000Z,5.13
2023-04-04T10:31:40.930Z,7.93
2023-04-04T10:34:21.036Z,8.07
2023-04-04T10:36:54.996Z,7.17
2023-04-04T10:39:37.815Z,4.80
2023-04-04T10:42:07.829Z,6.63
2023-04-04T10:44:39.887Z,6.60
2023-04-04T10:47:23.530Z,8.40
2023-04-04T10:49:51.755Z,8.60
2023-04-04T10:52:24.716Z,6.07
2023-04-04T10:54:55.120Z,6.10
2023-04-04T10:57:23.825Z,5.20
2023-04-04T11:00:18.002Z,5.23
2023-04-04T11:03:00.399Z,12.13
2023-04-04T11:05:37.602Z,5.53
2023-04-04T11:08:09.060Z,6.20
2023-04-04T11:10:42.508Z,7.83
2023-04-04T11:13:16.371Z,5.87
2023-04-04T11:16:07.623Z,9.33
2023-04-04T11:18:43.856Z,7.57
2023-04-04T11:21:20.472Z,4.93
2023-04-04T11:24:14.745Z,7.07
2023-04-04T11:26:46.151Z,5.83
2023-04-04T11:29:22.675Z,6.43
2023-04-04T11:31:50.974Z,6.10
2023-04-04T11:34:32.603Z,6.30
2023-04-04T11:37:03.283Z,6.30
2023-04-04T11:39:31.713Z,7.17
2023-04-04T11:42:14.143Z,8.70
2023-04-04T11:44:51.302Z,6.93
2023-04-04T11:47:24.091Z,8.50
2023-04-04T11:49:53.765Z,5.77
2023-04-04T11:52:23.741Z,9.23
2023-04-04T11:54:50.862Z,8.03
2023-04-04T11:57:19.777Z,6.33
2023-04-04T11:59:50.571Z,6.33
2023-04-04T12:02:23.735Z,5.77
2023-04-04T12:04:52.251Z,11.27
2023-04-04T12:07:19.734Z,6.20
2023-04-04T12:09:48.077Z,6.20
2023-04-04T12:12:19.826Z,7.57
2023-04-04T12:17:20.527Z,6.53
2023-04-04T12:19:47.671Z,7.63
2023-04-04T12:22:15.015Z,6.93
2023-04-04T12:24:42.151Z,8.93
2023-04-04T12:27:09.214Z,7.40
2023-04-04T12:29:37.635Z,10.23
2023-04-04T12:32:06.385Z,7.73
2023-04-04T12:34:36.318Z,7.37
2023-04-04T12:37:04.171Z,9.47
2023-04-04T12:39:31.990Z,9.47
2023-04-04T12:42:04.004Z,6.20
2023-04-04T12:44:41.979Z,7.97
2023-04-04T12:47:16.088Z,6.77
2023-04-04T12:49:48.728Z,10.83
2023-04-04T12:52:21.763Z,7.73
2023-04-04T12:55:04.815Z,7.23
2023-04-04T12:57:36.115Z,5.43
2023-04-04T13:00:06.325Z,7.47
2023-04-04T13:02:36.516Z,7.93
2023-04-04T13:05:04.340Z,7.73
2023-04-04T13:07:43.096Z,7.07
2023-04-04T13:10:15.994Z,7.20
2023-04-04T13:12:58.826Z,9.13
2023-04-04T13:15:51.078Z,8.30
2023-04-04T13:18:24.783Z,9.67
2023-04-04T13:20:53.933Z,6.93
2023-04-04T13:23:21.864Z,9.00
2023-04-04T13:25:49.049Z,5.73
2023-04-04T13:28:16.460Z,8.80
2023-04-04T13:30:48.715Z,11.27
2023-04-04T13:33:17.301Z,7.33
2023-04-04T13:35:45.514Z,9.17
2023-04-04T13:38:12.973Z,7.53
2023-04-04T13:40:40.070Z,8.07
2023-04-04T13:43:09.053Z,8.50
2023-04-04T13:45:36.318Z,7.17
2023-04-04T13:48:04.321Z,7.13
2023-04-04T13:50:33.002Z,6.43
2023-04-04T13:53:00.572Z,9.53
2023-04-04T13:55:28.206Z,8.10
2023-04-04T13:57:55.237Z,7.30
2023-04-04T14:00:25.097Z,9.93
2023-04-04T14:02:54.174Z,8.17
2023-04-04T14:05:22.921Z,8.27
2023-04-04T14:07:50.308Z,10.60
2023-04-04T14:10:17.324Z,7.47
2023-04-04T14:12:44.330Z,9.40
2023-04-04T14:15:12.325Z,6.77
2023-04-04T14:17:39.543Z,13.73
2023-04-04T14:20:07.956Z,10.43
2023-04-04T14:22:35.477Z,8.70
2023-04-04T14:25:03.076Z,7.77
2023-04-04T14:27:29.993Z,8.20
2023-04-04T14:29:56.937Z,6.20
2023-04-04T14:32:24.867Z,7.10
2023-04-04T14:34:52.119Z,7.67
2023-04-04T14:37:19.085Z,8.03
2023-04-04T14:39:46.021Z,11.93
2023-04-04T14:42:12.934Z,9.20
2023-04-04T14:44:42.050Z,9.10
2023-04-04T14:47:09.657Z,7.30
2023-04-04T14:49:36.806Z,6.83
2023-04-04T14:52:04.276Z,9.20
2023-04-04T14:54:31.263Z,11.03
2023-04-04T14:56:59.385Z,7.60
2023-04-04T14:59:26.365Z,8.63
2023-04-04T15:01:53.310Z,7.13
2023-04-04T15:04:20.379Z,11.80
2023-04-04T15:06:47.313Z,8.63
2023-04-04T15:09:14.915Z,8.93
2023-04-04T15:11:42.324Z,9.67
2023-04-04T15:14:09.429Z,11.80
2023-04-04T15:16:36.597Z,7.43
2023-04-04T15:19:03.646Z,11.93
2023-04-04T15:21:31.727Z,7.00
2023-04-04T15:23:58.792Z,10.30
2023-04-04T15:26:26.070Z,9.87
2023-04-04T15:28:53.099Z,8.13
2023-04-04T15:31:21.032Z,5.77
2023-04-04T15:33:48.441Z,10.03
2023-04-04T15:36:15.507Z,6.20
2023-04-04T15:38:42.479Z,6.87
2023-04-04T15:41:10.372Z,9.03
2023-04-04T15:43:37.731Z,10.03
2023-04-04T15:46:05.486Z,9.37
2023-04-04T15:48:34.277Z,7.90
2023-04-04T15:51:04.898Z,10.83
2023-04-04T15:53:33.286Z,7.10
2023-04-04T15:56:01.981Z,8.60
2023-04-04T15:58:28.962Z,9.03
2023-04-04T16:00:56.065Z,7.93
2023-04-04T16:03:24.613Z,7.60
2023-04-04T16:05:51.733Z,11.70
2023-04-04T16:08:18.664Z,6.40
2023-04-04T16:10:45.577Z,6.33
2023-04-04T16:13:14.115Z,7.43
2023-04-04T16:15:41.275Z,7.30
2023-04-04T16:18:08.781Z,8.33
2023-04-04T16:20:36.269Z,10.23
2023-04-04T16:23:03.282Z,6.67
2023-04-04T16:25:30.244Z,7.27
2023-04-04T16:27:57.304Z,9.93
2023-04-04T16:30:24.274Z,8.97
2023-04-04T16:32:52.141Z,9.50
2023-04-04T16:35:19.152Z,11.03
2023-04-04T16:37:46.065Z,9.57
2023-04-04T16:40:14.870Z,9.33
2023-04-04T16:42:42.475Z,14.67
2023-04-04T16:45:10.498Z,8.50
2023-04-04T16:47:37.596Z,8.57
2023-04-04T16:50:07.085Z,10.50
2023-04-04T16:52:34.075Z,10.83
2023-04-04T16:55:01.067Z,13.23
2023-04-04T16:57:28.062Z,8.27
2023-04-04T16:59:55.061Z,7.70
2023-04-04T17:02:22.081Z,9.60
2023-04-04T17:04:49.186Z,8.73
2023-04-04T17:07:16.325Z,12.30
2023-04-04T17:09:43.374Z,6.17
2023-04-04T17:12:10.318Z,10.47
2023-04-04T17:14:37.599Z,12.13
2023-04-04T17:17:05.566Z,11.33
2023-04-04T17:19:34.846Z,8.87
2023-04-04T17:22:02.288Z,7.40
2023-04-04T17:24:29.241Z,14.00
2023-04-04T17:26:58.246Z,9.67
2023-04-04T17:29:27.350Z,9.67
2023-04-04T17:31:58.299Z,7.53
2023-04-04T17:34:26.297Z,8.47
2023-04-04T17:36:53.857Z,9.43
2023-04-04T17:39:21.486Z,10.00
2023-04-04T17:41:48.775Z,9.13
2023-04-04T17:44:17.308Z,8.17
2023-04-04T17:46:45.165Z,7.60
2023-04-04T17:49:12.778Z,8.17
2023-04-04T17:51:39.695Z,8.97
2023-04-04T17:54:06.855Z,10.47
2023-04-04T17:56:33.794Z,7.10
2023-04-04T17:59:00.885Z,6.73
2023-04-04T18:01:29.469Z,8.87
2023-04-04T18:03:57.644Z,8.17
2023-04-04T18:06:24.747Z,8.93
2023-04-04T18:08:51.819Z,9.13
2023-04-04T18:11:19.154Z,7.33
2023-04-04T18:13:46.261Z,8.77
2023-04-04T18:16:13.361Z,9.27
2023-04-04T18:18:40.690Z,7.10
2023-04-04T18:21:08.462Z,11.30
2023-04-04T18:23:35.782Z,7.90
2023-04-04T18:26:03.322Z,10.40
2023-04-04T18:28:30.537Z,11.23
2023-04-04T18:30:59.472Z,10.07
2023-04-04T18:33:27.233Z,10.83
2023-04-04T18:35:54.853Z,10.20
2023-04-04T18:38:21.938Z,10.97
2023-04-04T18:40:48.912Z,9.93
2023-04-04T18:43:15.997Z,20.17
2023-04-04T18:45:43.248Z,18.77
2023-04-04T18:48:12.515Z,19.07
2023-04-04T18:50:40.993Z,18.57
2023-04-04T18:53:08.555Z,14.20
2023-04-04T18:55:36.325Z,11.10
2023-04-04T18:58:03.254Z,13.27
2023-04-04T19:00:31.230Z,23.97
2023-04-04T19:02:58.311Z,26.57
2023-04-04T19:05:25.714Z,18.70
2023-04-04T19:07:54.520Z,16.17
2023-04-04T19:10:22.196Z,16.93
2023-04-04T19:12:49.188Z,12.47
2023-04-04T19:15:16.389Z,14.40
2023-04-04T19:17:43.409Z,13.00
2023-04-04T19:20:12.429Z,13.63
2023-04-04T19:22:39.452Z,15.97
2023-04-04T19:25:06.629Z,23.87
2023-04-04T19:27:33.614Z,28.90
2023-04-04T19:30:00.693Z,34.17
2023-04-04T19:32:28.498Z,32.30
2023-04-04T19:34:56.438Z,33.27
2023-04-04T19:37:24.487Z,24.93
2023-04-04T19:39:51.506Z,15.30
2023-04-04T19:42:27.090Z,11.60
2023-04-04T19:44:54.033Z,14.93
2023-04-04T19:47:21.764Z,13.83
2023-04-04T19:49:52.867Z,14.87
2023-04-04T19:52:24.137Z,13.53
2023-04-04T19:54:51.066Z,11.10
2023-04-04T19:57:33.483Z,13.00
2023-04-04T20:00:22.515Z,14.30
2023-04-04T20:03:00.005Z,13.70
2023-04-04T20:05:32.127Z,11.17
2023-04-04T20:08:00.951Z,12.23
2023-04-04T20:10:40.604Z,17.83
2023-04-04T20:13:08.610Z,16.10
2023-04-04T20:16:06.640Z,16.07
2023-04-04T20:18:35.587Z,16.33
2023-04-04T20:21:23.553Z,17.67
2023-04-04T20:23:53.328Z,15.93
2023-04-04T20:26:59.668Z,18.17
2023-04-04T20:29:32.351Z,17.77
2023-04-04T20:32:08.768Z,14.30
2023-04-04T20:34:46.703Z,16.03
2023-04-04T20:37:23.488Z,18.10
2023-04-04T20:39:58.801Z,15.47
2023-04-04T20:42:36.863Z,17.37
2023-04-04T20:45:09.689Z,18.40
2023-04-04T20:47:55.049Z,16.77
2023-04-04T20:50:35.424Z,16.67
2023-04-04T20:53:13.337Z,20.77
2023-04-04T20:58:09.478Z,18.10
2023-04-04T21:00:42.569Z,20.40
2023-04-04T21:03:34.760Z,16.70
2023-04-04T21:06:10.852Z,18.27
2023-04-04T21:08:49.568Z,18.07
2023-04-04T21:11:38.214Z,19.57
2023-04-04T21:14:28.251Z,19.67
2023-04-04T21:16:55.158Z,22.73
2023-04-04T21:19:23.522Z,21.30
2023-04-04T21:21:54.580Z,24.40
2023-04-04T21:24:21.544Z,19.10
2023-04-04T21:26:50.239Z,23.00
2023-04-04T21:29:24.434Z,23.10
2023-04-04T21:31:56.704Z,21.53
2023-04-04T21:34:36.317Z,21.17
2023-04-04T21:37:16.204Z,21.53
2023-04-04T21:39:45.087Z,20.20
2023-04-04T21:42:12.162Z,20.73
2023-04-04T21:44:39.225Z,21.07
2023-04-04T21:47:06.601Z,19.77
2023-04-04T21:49:33.565Z,20.10
2023-04-04T21:52:00.490Z,16.33
2023-04-04T21:54:27.431Z,17.30
2023-04-04T21:56:54.329Z,13.77
2023-04-04T21:59:21.673Z,17.13
2023-04-04T22:01:50.331Z,19.60
2023-04-04T22:04:17.285Z,18.70
2023-04-04T22:06:44.258Z,18.67
2023-04-04T22:09:11.827Z,20.23
2023-04-04T22:11:44.426Z,19.37
2023-04-04T22:14:17.296Z,17.50
2023-04-04T22:16:44.587Z,18.97
2023-04-04T22:19:12.007Z,17.73
2023-04-04T22:21:39.380Z,19.17
2023-04-04T22:24:10.085Z,16.43
2023-04-04T22:26:41.759Z,17.67
2023-04-04T22:29:08.692Z,23.07
2023-04-04T22:31:37.567Z,17.43
2023-04-04T22:34:06.247Z,19.40
2023-04-04T22:36:34.336Z,18.77
2023-04-04T22:39:04.048Z,16.13
2023-04-04T22:41:31.991Z,23.73
2023-04-04T22:44:07.183Z,19.80
2023-04-04T22:46:40.049Z,17.20
2023-04-04T22:49:08.859Z,16.87
2023-04-04T22:51:46.283Z,15.67
2023-04-04T22:54:17.031Z,18.63
2023-04-04T22:56:47.466Z,19.33
2023-04-04T22:59:17.351Z,18.93
2023-04-04T23:01:47.979Z,18.60
2023-04-04T23:04:15.013Z,21.53
2023-04-04T23:06:48.280Z,22.90
2023-04-04T23:09:18.242Z,25.70
2023-04-04T23:11:48.241Z,24.60
2023-04-04T23:14:19.510Z,29.00
2023-04-04T23:16:53.743Z,25.47
2023-04-04T23:19:23.220Z,23.43
2023-04-04T23:21:52.666Z,24.30
2023-04-04T23:24:19.547Z,21.93
2023-04-04T23:26:53.244Z,19.70
2023-04-04T23:29:23.921Z,21.00
2023-04-04T23:31:51.010Z,22.50
2023-04-04T23:34:18.210Z,23.03
2023-04-04T23:36:45.286Z,21.83
2023-04-04T23:39:12.339Z,19.93
2023-04-04T23:41:39.326Z,21.77
2023-04-04T23:44:06.290Z,26.47
2023-04-04T23:46:34.861Z,21.97
2023-04-04T23:49:02.062Z,23.07
2023-04-04T23:51:38.301Z,20.93
2023-04-04T23:54:10.433Z,21.07
2023-04-04T23:56:37.896Z,19.27
2023-04-04T23:59:06.020Z,19.97
